Time;durP1;ratioP1;P1;durP2;ratioP2;P2;SDS_P1;SDS_P2;PMS_P1;PMS_P2;Temp;Humidity;BMP_temperature;BMP_pressure;BME280_temperature;BME280_humidity;BME280_pressure;Samples;Min_cycle;Max_cycle;Signal;HPM_P1;HPM_P2
2023/12/29 00:00:41;;;;;;;20.40;12.90;;;;;;;6.51;100.00;100152.19;110587;1263;23592;-81
2023/12/29 00:03:40;;;;;;;17.00;11.10;;;;;;;6.51;100.00;100152.88;110336;1263;21966;-82
2023/12/29 00:06:25;;;;;;;16.00;10.70;;;;;;;6.51;100.00;100147.52;110370;1263;23024;-82
2023/12/29 00:09:08;;;;;;;14.10;10.00;;;;;;;6.50;100.00;100139.77;110431;1263;22008;-80
2023/12/29 00:11:47;;;;;;;13.70;10.20;;;;;;;6.50;100.00;100135.77;110455;1263;22492;-81
2023/12/29 00:14:32;;;;;;;13.40;10.40;;;;;;;6.52;100.00;100135.23;110475;1263;24389;-81
2023/12/29 00:17:09;;;;;;;13.40;11.10;;;;;;;6.53;100.00;100136.40;110467;1263;21986;-81
2023/12/29 00:19:48;;;;;;;14.60;10.40;;;;;;;6.55;100.00;100135.85;110650;1263;21969;-82
2023/12/29 00:22:21;;;;;;;13.20;9.70;;;;;;;6.55;100.00;100131.35;110726;1259;21981;-81
2023/12/29 00:24:54;;;;;;;13.60;9.90;;;;;;;6.53;100.00;100128.98;111080;1254;23618;-83
2023/12/29 00:27:39;;;;;;;12.40;9.90;;;;;;;6.50;100.00;100125.41;111293;1254;23583;-81
2023/12/29 00:30:20;;;;;;;11.40;10.10;;;;;;;6.47;100.00;100121.88;111507;1254;21957;-82
2023/12/29 00:33:14;;;;;;;12.60;9.40;;;;;;;6.44;100.00;100117.97;111034;1259;23063;-82
2023/12/29 00:35:50;;;;;;;12.30;10.20;;;;;;;6.43;100.00;100116.77;111055;1258;21965;-82
2023/12/29 00:38:30;;;;;;;12.70;9.50;;;;;;;6.43;100.00;100116.94;110619;1263;23713;-81
2023/12/29 00:41:02;;;;;;;10.50;9.20;;;;;;;6.45;100.00;100114.48;110636;1263;21998;-81
2023/12/29 00:43:43;;;;;;;13.30;10.00;;;;;;;6.47;100.00;100113.74;110002;1267;23608;-82
2023/12/29 00:46:27;;;;;;;10.50;8.70;;;;;;;6.48;100.00;100114.07;109993;1268;24444;-81
2023/12/29 00:49:00;;;;;;;13.30;8.10;;;;;;;6.49;100.00;100119.74;110353;1268;22993;-82
2023/12/29 00:51:44;;;;;;;13.70;9.00;;;;;;;6.51;100.00;100121.27;110596;1263;21976;-82
2023/12/29 00:54:22;;;;;;;9.90;7.40;;;;;;;6.49;100.00;100121.83;110455;1262;21984;-81
2023/12/29 00:57:03;;;;;;;11.00;8.30;;;;;;;6.50;100.00;100117.48;110816;1259;22005;-81
2023/12/29 00:59:40;;;;;;;12.20;8.40;;;;;;;6.51;100.00;100110.17;110369;1263;22046;-82
2023/12/29 01:02:19;;;;;;;12.40;9.00;;;;;;;6.51;100.00;100106.21;110968;1258;21985;-81
2023/12/29 01:04:57;;;;;;;12.50;9.50;;;;;;;6.52;100.00;100098.22;111057;1258;23653;-82
2023/12/29 01:07:32;;;;;;;12.30;9.00;;;;;;;6.54;100.00;100096.12;110363;1265;21989;-82
2023/12/29 01:10:22;;;;;;;13.50;8.80;;;;;;;6.53;100.00;100093.89;110464;1265;22641;-82
2023/12/29 01:13:21;;;;;;;12.60;8.40;;;;;;;6.54;100.00;100093.68;109937;1265;21941;-81
2023/12/29 01:15:51;;;;;;;11.30;8.90;;;;;;;6.52;100.00;100090.80;109715;1270;23709;-81
2023/12/29 01:18:30;;;;;;;10.10;8.30;;;;;;;6.53;100.00;100094.74;109971;1270;23786;-82
2023/12/29 01:21:10;;;;;;;12.00;8.90;;;;;;;6.54;100.00;100096.30;110010;1270;21993;-80
2023/12/29 01:23:44;;;;;;;10.80;8.00;;;;;;;6.52;100.00;100091.48;109986;1265;22034;-81
2023/12/29 01:26:18;;;;;;;12.00;8.70;;;;;;;6.51;100.00;100084.07;110769;1259;23615;-79
2023/12/29 01:28:53;;;;;;;10.80;8.80;;;;;;;6.50;100.00;100078.92;110520;1264;22732;-80
2023/12/29 01:31:34;;;;;;;12.60;9.10;;;;;;;6.48;100.00;100078.09;110731;1264;22896;-85
2023/12/29 01:34:18;;;;;;;9.60;8.60;;;;;;;6.46;100.00;100077.27;110942;1259;23027;-82
2023/12/29 01:37:08;;;;;;;12.70;8.70;;;;;;;6.45;100.00;100073.17;110384;1264;21998;-83
2023/12/29 01:39:40;;;;;;;10.30;9.00;;;;;;;6.44;100.00;100074.38;109706;1268;23614;-81
2023/12/29 01:42:27;;;;;;;13.10;9.60;;;;;;;6.45;100.00;100078.02;109901;1270;22378;-81
2023/12/29 01:45:28;;;;;;;11.00;8.80;;;;;;;6.43;100.00;100071.98;110143;1269;23573;-81
2023/12/29 01:48:21;;;;;;;12.40;8.90;;;;;;;6.40;100.00;100067.77;109449;1271;21988;-82
2023/12/29 01:51:25;;;;;;;12.10;8.70;;;;;;;6.36;100.00;100059.55;109759;1271;21980;-82
2023/12/29 01:54:12;;;;;;;13.40;9.90;;;;;;;6.36;100.00;100048.67;109623;1272;22056;-82
2023/12/29 01:56:56;;;;;;;12.80;10.30;;;;;;;6.37;100.00;100046.76;110317;1267;22991;-82
2023/12/29 01:59:32;;;;;;;11.30;8.80;;;;;;;6.40;100.00;100043.23;110761;1261;23698;-82
2023/12/29 02:02:15;;;;;;;10.20;8.60;;;;;;;6.40;100.00;100041.66;110746;1262;22036;-82
2023/12/29 02:04:58;;;;;;;9.80;7.80;;;;;;;6.40;100.00;100038.55;110379;1268;22002;-83
2023/12/29 02:07:41;;;;;;;13.70;9.50;;;;;;;6.42;100.00;100039.89;111016;1260;23576;-84
2023/12/29 02:10:23;;;;;;;11.40;9.60;;;;;;;6.39;100.00;100037.02;111191;1259;21972;-80
2023/12/29 02:12:59;;;;;;;11.10;8.70;;;;;;;6.37;100.00;100036.73;110634;1264;22387;-81
2023/12/29 02:15:31;;;;;;;17.00;10.20;;;;;;;6.34;100.00;100032.48;109664;1270;24373;-80
2023/12/29 02:18:07;;;;;;;14.30;9.90;;;;;;;6.31;100.00;100033.42;109920;1270;24129;-81
2023/12/29 02:20:46;;;;;;;11.70;9.10;;;;;;;6.28;100.00;100031.06;109318;1275;21985;-83
2023/12/29 02:23:16;;;;;;;10.40;8.60;;;;;;;6.29;100.00;100031.06;109484;1270;22021;-82
2023/12/29 02:25:58;;;;;;;12.10;9.10;;;;;;;6.31;100.00;100024.41;109961;1270;22025;-81
2023/12/29 02:28:56;;;;;;;12.30;9.20;;;;;;;6.32;100.00;100021.66;109885;1270;21975;-82
2023/12/29 02:31:37;;;;;;;9.40;7.80;;;;;;;6.31;100.00;100017.70;110131;1264;22015;-81
2023/12/29 02:34:14;;;;;;;10.00;8.50;;;;;;;6.33;100.00;100018.84;110778;1260;23684;-81
2023/12/29 02:36:58;;;;;;;10.10;7.90;;;;;;;6.34;100.00;100021.59;110875;1259;21978;-82
2023/12/29 02:39:36;;;;;;;11.80;9.00;;;;;;;6.33;100.00;100019.90;111291;1254;21968;-81
2023/12/29 02:42:35;;;;;;;10.00;8.70;;;;;;;6.31;100.00;100017.35;111207;1253;21952;-80
2023/12/29 02:45:12;;;;;;;10.00;8.90;;;;;;;6.33;100.00;100021.60;111400;1254;21969;-83
2023/12/29 02:47:52;;;;;;;8.40;7.50;;;;;;;6.38;100.00;100020.27;111303;1254;21948;-82
2023/12/29 02:50:26;;;;;;;10.40;8.40;;;;;;;6.41;100.00;100019.68;111337;1254;23618;-82
2023/12/29 02:52:57;;;;;;;10.50;7.50;;;;;;;6.42;100.00;100020.16;111539;1254;22012;-83
2023/12/29 02:55:35;;;;;;;9.20;7.40;;;;;;;6.45;100.00;100014.56;110866;1258;21984;-81
2023/12/29 02:58:16;;;;;;;9.70;7.90;;;;;;;6.48;100.00;100016.03;110967;1258;22249;-80
2023/12/29 03:01:00;;;;;;;10.00;7.50;;;;;;;6.48;100.00;100010.34;111016;1258;21963;-82
2023/12/29 03:03:35;;;;;;;13.20;8.30;;;;;;;6.48;100.00;100008.77;110877;1261;21960;-81
2023/12/29 03:06:17;;;;;;;12.50;7.80;;;;;;;6.51;100.00;100007.67;110265;1265;22974;-80
2023/12/29 03:08:52;;;;;;;;;;;;;;;6.52;100.00;100010.05;110107;1266;21969;-81
2023/12/29 03:11:34;;;;;;;10.80;8.10;;;;;;;6.44;100.00;100007.67;110592;1266;23021;-81
2023/12/29 03:14:09;;;;;;;10.80;8.20;;;;;;;6.47;100.00;100004.32;110424;1261;22006;-81
2023/12/29 03:16:54;;;;;;;8.10;7.20;;;;;;;6.51;100.00;100001.96;110749;1265;22355;-83
2023/12/29 03:19:26;;;;;;;11.80;8.60;;;;;;;6.50;100.00;100003.19;110586;1264;22530;-81
2023/12/29 03:22:20;;;;;;;8.50;7.40;;;;;;;6.48;100.00;100004.62;110654;1262;21980;-82
2023/12/29 03:24:57;;;;;;;8.30;6.70;;;;;;;6.48;100.00;100006.89;110809;1258;21987;-82
2023/12/29 03:27:39;;;;;;;7.60;6.50;;;;;;;6.49;100.00;100008.76;111156;1257;23745;-82
2023/12/29 03:30:27;;;;;;;7.70;6.50;;;;;;;6.48;100.00;100010.17;111025;1258;24309;-80
2023/12/29 03:33:14;;;;;;;7.20;6.40;;;;;;;6.50;100.00;100014.27;111096;1258;22035;-81
2023/12/29 03:35:51;;;;;;;8.00;6.20;;;;;;;6.53;100.00;100012.64;111029;1260;21987;-81
2023/12/29 03:38:33;;;;;;;7.60;6.30;;;;;;;6.56;100.00;100009.27;110449;1264;21989;-81
2023/12/29 03:41:05;;;;;;;6.50;5.70;;;;;;;6.58;100.00;100006.95;110001;1268;22001;-83
2023/12/29 03:43:47;;;;;;;7.50;6.10;;;;;;;6.61;100.00;100004.10;110010;1268;21977;-82
2023/12/29 03:46:35;;;;;;;9.20;6.40;;;;;;;6.64;100.00;99999.52;109910;1263;21978;-80
2023/12/29 03:49:10;;;;;;;8.90;5.80;;;;;;;6.67;100.00;99996.16;110322;1268;22394;-83
2023/12/29 03:51:52;;;;;;;8.90;7.00;;;;;;;6.70;100.00;99994.20;109487;1272;21991;-82
2023/12/29 03:54:22;;;;;;;7.90;6.10;;;;;;;6.70;100.00;99985.19;109152;1274;21992;-80
2023/12/29 03:56:59;;;;;;;7.40;5.90;;;;;;;6.71;100.00;99981.88;109364;1274;21984;-81
2023/12/29 03:59:33;;;;;;;6.60;5.80;;;;;;;6.71;100.00;99982.05;109500;1270;25047;-83
2023/12/29 04:02:17;;;;;;;6.30;5.40;;;;;;;6.71;100.00;99976.88;109797;1270;22023;-81
2023/12/29 04:05:07;;;;;;;8.60;6.90;;;;;;;6.67;100.00;99973.00;109692;1257;23097;-81
2023/12/29 04:07:55;;;;;;;8.30;5.90;;;;;;;6.63;100.00;99972.60;109807;1270;23720;-81
2023/12/29 04:10:25;;;;;;;8.00;6.20;;;;;;;6.57;100.00;99968.45;109303;1274;23644;-81
2023/12/29 04:13:06;;;;;;;19.60;16.60;;;;;;;6.54;100.00;99970.42;109795;1268;21993;-82
2023/12/29 04:15:55;;;;;;;14.30;10.60;;;;;;;6.55;100.00;99970.41;109972;1261;23600;-83
2023/12/29 04:18:28;;;;;;;9.00;6.70;;;;;;;6.53;100.00;99962.67;110812;1261;22726;-81
2023/12/29 04:21:03;;;;;;;81.60;61.50;;;;;;;6.51;100.00;99960.82;110931;1255;23023;-81
2023/12/29 04:23:41;;;;;;;13.20;10.00;;;;;;;6.51;100.00;99958.92;110895;1261;23480;-81
2023/12/29 04:26:18;;;;;;;11.40;7.80;;;;;;;6.50;100.00;99954.61;110646;1261;22030;-80
2023/12/29 04:29:03;;;;;;;11.10;7.90;;;;;;;6.48;100.00;99954.68;110889;1254;22233;-81
2023/12/29 04:31:43;;;;;;;7.40;6.10;;;;;;;6.47;100.00;99951.59;111053;1257;22016;-81
2023/12/29 04:34:23;;;;;;;8.30;6.40;;;;;;;6.51;100.00;99954.95;110797;1263;21969;-81
2023/12/29 04:36:58;;;;;;;8.10;6.40;;;;;;;6.53;100.00;99949.89;110113;1270;22023;-81
2023/12/29 04:39:31;;;;;;;7.60;6.60;;;;;;;6.55;100.00;99947.73;109696;1273;21975;-80
2023/12/29 04:42:17;;;;;;;9.20;6.80;;;;;;;6.58;100.00;99946.29;109401;1277;22014;-81
2023/12/29 04:44:49;;;;;;;8.40;6.60;;;;;;;6.60;100.00;99941.21;109142;1277;22005;-81
2023/12/29 04:47:26;;;;;;;8.30;6.40;;;;;;;6.61;100.00;99944.65;109301;1275;22005;-82
2023/12/29 04:50:17;;;;;;;8.90;6.50;;;;;;;6.61;100.00;99937.55;109542;1274;24079;-80
2023/12/29 04:52:50;;;;;;;;;;;;;;;6.63;100.00;99933.34;109899;1267;22436;-82
2023/12/29 04:55:21;;;;;;;9.80;7.90;;;;;;;6.57;100.00;99934.71;110628;1261;21982;-81
2023/12/29 04:57:56;;;;;;;11.00;7.30;;;;;;;6.60;100.00;99932.55;110947;1259;21991;-82
2023/12/29 05:00:35;;;;;;;8.60;6.40;;;;;;;6.64;100.00;99927.97;111244;1254;23822;-81
2023/12/29 05:03:09;;;;;;;8.60;6.80;;;;;;;6.68;100.00;99922.48;111510;1254;23686;-80
2023/12/29 05:05:46;;;;;;;7.00;6.00;;;;;;;6.71;100.00;99919.30;111163;1254;21956;-80
2023/12/29 05:08:20;;;;;;;9.40;7.50;;;;;;;6.69;100.00;99919.67;111220;1254;23737;-80
2023/12/29 05:11:08;;;;;;;8.70;6.70;;;;;;;6.70;100.00;99920.86;111310;1254;22007;-81
2023/12/29 05:13:45;;;;;;;10.60;6.80;;;;;;;6.72;100.00;99919.80;111231;1254;22735;-81
2023/12/29 05:16:24;;;;;;;9.50;7.40;;;;;;;6.74;100.00;99921.29;111470;1254;23585;-82
2023/12/29 05:18:58;;;;;;;11.20;9.60;;;;;;;6.73;100.00;99923.18;111555;1254;21971;-81
2023/12/29 05:21:42;;;;;;;17.50;13.70;;;;;;;6.73;100.00;99924.08;111135;1254;24094;-81
2023/12/29 05:24:35;;;;;;;14.00;11.50;;;;;;;6.75;100.00;99921.41;111550;1253;22037;-81
2023/12/29 05:27:16;;;;;;;11.90;8.70;;;;;;;6.77;100.00;99916.17;111472;1253;21958;-81
2023/12/29 05:30:00;;;;;;;12.60;10.40;;;;;;;6.79;100.00;99916.09;110968;1258;21974;-83
2023/12/29 05:32:42;;;;;;;10.00;7.30;;;;;;;6.83;100.00;99917.55;111003;1258;22026;-81
2023/12/29 05:35:16;;;;;;;8.60;7.80;;;;;;;6.86;100.00;99919.54;110414;1264;21998;-80
2023/12/29 05:37:53;;;;;;;6.90;6.20;;;;;;;6.90;100.00;99914.06;110415;1264;22120;-80
2023/12/29 05:40:33;;;;;;;7.90;6.30;;;;;;;6.94;100.00;99913.77;110378;1258;21968;-82
2023/12/29 05:43:43;;;;;;;7.90;6.80;;;;;;;6.98;100.00;99913.48;109560;1273;23039;-80
2023/12/29 05:46:19;;;;;;;7.80;6.30;;;;;;;7.01;100.00;99913.02;109086;1277;22506;-81
2023/12/29 05:48:58;;;;;;;25.00;21.80;;;;;;;7.03;100.00;99911.77;109156;1277;21627;-84
2023/12/29 05:51:45;;;;;;;75.80;44.70;;;;;;;7.04;100.00;99907.94;109118;1277;22001;-80
2023/12/29 05:54:24;;;;;;;96.90;61.90;;;;;;;7.04;100.00;99906.21;109462;1270;22283;-81
2023/12/29 05:57:03;;;;;;;78.50;53.40;;;;;;;7.05;100.00;99910.52;109266;1274;22075;-82
2023/12/29 05:59:35;;;;;;;65.30;47.70;;;;;;;7.09;100.00;99912.13;109456;1274;21996;-82
2023/12/29 06:02:37;;;;;;;44.90;36.30;;;;;;;7.12;100.00;99908.76;110261;1265;23796;-83
2023/12/29 06:05:29;;;;;;;20.90;17.50;;;;;;;7.09;100.00;99907.11;110740;1260;22371;-83
2023/12/29 06:08:08;;;;;;;16.20;10.20;;;;;;;7.10;100.00;99901.02;110857;1258;21967;-82
2023/12/29 06:10:59;;;;;;;9.90;8.60;;;;;;;7.10;100.00;99897.55;110872;1261;21981;-81
2023/12/29 06:13:57;;;;;;;9.10;7.50;;;;;;;7.09;100.00;99894.30;110863;1260;22026;-83
2023/12/29 06:16:50;;;;;;;9.00;6.60;;;;;;;7.09;100.00;99889.29;111437;1254;21982;-83
2023/12/29 06:19:36;;;;;;;9.20;7.80;;;;;;;7.05;100.00;99885.92;110920;1260;23593;-84
2023/12/29 06:22:15;;;;;;;7.90;6.60;;;;;;;7.02;100.00;99887.25;110540;1264;21982;-83
2023/12/29 06:24:49;;;;;;;8.70;6.40;;;;;;;6.99;100.00;99882.83;110477;1264;22015;-82
2023/12/29 06:27:37;;;;;;;10.20;6.50;;;;;;;6.97;100.00;99878.73;110262;1267;24325;-82
2023/12/29 06:30:17;;;;;;;7.90;6.10;;;;;;;6.97;100.00;99881.52;110356;1267;23491;-83
2023/12/29 06:33:21;;;;;;;8.20;6.40;;;;;;;6.96;100.00;99882.23;109666;1272;23082;-82
2023/12/29 06:36:02;;;;;;;9.60;6.60;;;;;;;6.98;100.00;99878.69;109490;1272;22011;-83
2023/12/29 06:38:35;;;;;;;11.10;6.70;;;;;;;7.02;100.00;99872.01;109844;1268;23084;-84
2023/12/29 06:41:06;;;;;;;10.90;6.90;;;;;;;7.06;100.00;99869.64;109608;1273;22007;-81
2023/12/29 06:43:45;;;;;;;12.20;7.60;;;;;;;7.07;100.00;99870.98;109656;1273;22002;-84
2023/12/29 06:46:39;;;;;;;17.30;8.30;;;;;;;7.07;100.00;99872.20;109642;1272;23065;-83
2023/12/29 06:49:25;;;;;;;13.80;8.80;;;;;;;7.07;100.00;99877.55;109672;1272;21979;-85
2023/12/29 06:52:46;;;;;;;14.40;8.40;;;;;;;7.05;100.00;99875.89;110134;1264;21992;-86
2023/12/29 06:56:24;;;;;;;19.20;9.30;;;;;;;7.03;100.00;99880.80;110554;1264;21976;-82
2023/12/29 07:00:25;;;;;;;24.50;9.00;;;;;;;7.06;100.00;99879.13;110093;1269;21998;-84
2023/12/29 07:04:16;;;;;;;;;;;;;;;;;;;;;
2023/12/29 07:07:28;;;;;;;13.30;10.40;;;;;;;6.95;100.00;99880.34;110347;1266;21870;-81
2023/12/29 07:10:55;;;;;;;;;;;;;;;;;;;;;
2023/12/29 07:14:51;;;;;;;24.30;11.40;;;;;;;6.98;100.00;99883.02;110512;1266;22051;-82
2023/12/29 07:23:47;;;;;;;7.90;6.40;;;;;;;6.99;100.00;99880.41;109307;1276;22979;-82
2023/12/29 07:27:05;;;;;;;12.40;8.10;;;;;;;6.94;100.00;99871.56;109139;1277;22234;-81
2023/12/29 07:30:03;;;;;;;12.40;7.70;;;;;;;6.99;100.00;99876.75;108534;1282;245588;-80
2023/12/29 07:32:58;;;;;;;10.10;7.80;;;;;;;7.06;100.00;99876.06;108474;1287;23864;-82
2023/12/29 07:36:19;;;;;;;9.20;7.50;;;;;;;7.11;100.00;99872.43;108546;1283;22032;-82
2023/12/29 07:39:43;;;;;;;11.60;7.10;;;;;;;7.09;100.00;99870.23;108376;1288;22005;-81
2023/12/29 07:43:10;;;;;;;15.00;7.60;;;;;;;7.08;100.00;99862.99;108374;1288;21986;-82
2023/12/29 07:46:16;;;;;;;15.60;8.90;;;;;;;7.07;100.00;99856.80;108344;1288;22003;-82
2023/12/29 07:49:28;;;;;;;11.20;8.50;;;;;;;7.05;100.00;99856.00;108506;1285;22497;-83
2023/12/29 07:52:05;;;;;;;16.10;10.30;;;;;;;7.06;100.00;99855.27;109000;1274;22059;-83
2023/12/29 07:54:53;;;;;;;20.50;12.80;;;;;;;7.06;100.00;99855.09;109719;1268;23034;-84
2023/12/29 07:57:44;;;;;;;17.30;11.50;;;;;;;7.07;100.00;99857.48;110334;1263;22010;-83
2023/12/29 08:00:41;;;;;;;16.40;9.70;;;;;;;7.10;100.00;99861.58;110751;1263;23037;-84
2023/12/29 08:03:23;;;;;;;17.90;9.30;;;;;;;7.09;100.00;99861.42;111172;1254;21975;-84
2023/12/29 08:06:23;;;;;;;;;;;;;;;;;;;;;
2023/12/29 08:09:06;;;;;;;24.00;9.20;;;;;;;7.14;100.00;99868.52;111258;1254;23045;-81
2023/12/29 08:11:42;;;;;;;18.90;10.40;;;;;;;7.23;100.00;99870.33;111209;1255;21959;-84
2023/12/29 08:14:34;;;;;;;12.90;9.20;;;;;;;7.32;100.00;99873.69;111453;1255;21972;-84
2023/12/29 08:17:07;;;;;;;12.90;9.20;;;;;;;7.40;100.00;99870.30;111255;1255;21964;-86
2023/12/29 08:19:49;;;;;;;11.50;9.30;;;;;;;7.43;100.00;99868.80;111256;1254;22003;-84
2023/12/29 08:22:32;;;;;;;13.60;10.70;;;;;;;7.47;100.00;99865.91;111302;1254;22959;-84
2023/12/29 08:25:17;;;;;;;18.00;11.90;;;;;;;7.55;100.00;99866.69;110820;1259;21976;-85
2023/12/29 08:28:01;;;;;;;17.30;11.50;;;;;;;7.62;100.00;99862.31;111017;1259;21970;-84
2023/12/29 08:30:45;;;;;;;19.40;15.60;;;;;;;7.71;100.00;99860.77;110174;1266;23628;-81
2023/12/29 08:33:43;;;;;;;16.30;12.90;;;;;;;7.79;100.00;99859.47;110202;1265;21976;-83
2023/12/29 08:36:21;;;;;;;16.70;11.30;;;;;;;7.84;100.00;99861.38;110096;1265;21980;-86
2023/12/29 08:39:00;;;;;;;26.80;10.30;;;;;;;7.92;100.00;99867.34;110126;1266;22003;-86
2023/12/29 08:41:31;;;;;;;24.00;11.00;;;;;;;7.92;100.00;99858.02;110105;1266;21987;-85
2023/12/29 08:44:14;;;;;;;21.00;10.90;;;;;;;8.06;100.00;99875.02;110757;1260;21984;-86
2023/12/29 08:46:48;;;;;;;17.60;12.90;;;;;;;8.11;100.00;99874.82;110460;1266;21951;-86
2023/12/29 08:49:23;;;;;;;15.50;10.70;;;;;;;8.18;100.00;99873.02;110835;1259;21968;-84
2023/12/29 08:51:54;;;;;;;8.10;7.00;;;;;;;8.24;100.00;99872.30;111158;1259;21955;-87
2023/12/29 08:54:29;;;;;;;18.20;11.20;;;;;;;8.31;100.00;99873.41;111046;1257;24292;-84
2023/12/29 08:57:06;;;;;;;10.80;7.90;;;;;;;8.38;100.00;99870.23;111051;1260;22071;-87
2023/12/29 08:59:42;;;;;;;18.60;9.20;;;;;;;8.47;100.00;99873.74;111006;1259;21977;-86
2023/12/29 09:02:14;;;;;;;13.40;7.90;;;;;;;8.55;100.00;99875.20;110493;1266;22215;-83
2023/12/29 09:04:46;;;;;;;9.50;7.30;;;;;;;8.58;100.00;99879.05;110112;1266;22984;-84
2023/12/29 09:07:19;;;;;;;9.70;7.20;;;;;;;8.61;100.00;99878.95;110443;1266;21982;-85
2023/12/29 09:09:54;;;;;;;10.80;8.60;;;;;;;8.65;100.00;99876.22;109709;1269;22019;-83
2023/12/29 09:12:34;;;;;;;11.50;8.00;;;;;;;8.64;100.00;99872.59;110357;1263;23028;-86
2023/12/29 09:15:11;;;;;;;7.70;6.90;;;;;;;8.66;100.00;99876.86;109913;1269;21939;-84
2023/12/29 09:17:44;;;;;;;9.70;7.50;;;;;;;8.70;100.00;99877.61;109777;1270;21942;-87
2023/12/29 09:20:28;;;;;;;9.90;8.00;;;;;;;8.73;100.00;99882.16;109407;1275;23807;-82
2023/12/29 09:23:11;;;;;;;9.10;7.90;;;;;;;8.78;100.00;99872.42;109437;1275;23039;-82
2023/12/29 09:25:46;;;;;;;10.10;9.00;;;;;;;8.86;100.00;99876.80;109490;1275;21979;-81
2023/12/29 09:28:36;;;;;;;17.00;9.40;;;;;;;8.94;100.00;99874.91;109379;1275;21993;-83
2023/12/29 09:31:29;;;;;;;14.30;10.00;;;;;;;9.01;100.00;99875.89;109286;1276;22004;-84
2023/12/29 09:34:13;;;;;;;21.00;11.90;;;;;;;9.12;100.00;99879.09;109810;1266;21972;-83
2023/12/29 09:36:51;;;;;;;18.90;9.10;;;;;;;9.24;100.00;99875.82;110426;1255;23045;-84
2023/12/29 09:39:28;;;;;;;13.30;9.90;;;;;;;9.40;100.00;99872.25;110784;1261;22010;-85
2023/12/29 09:42:10;;;;;;;18.60;9.90;;;;;;;9.58;100.00;99869.80;110980;1261;22745;-81
2023/12/29 09:44:52;;;;;;;18.00;11.80;;;;;;;9.77;100.00;99870.73;110883;1261;21980;-85
2023/12/29 09:47:46;;;;;;;24.30;15.80;;;;;;;9.98;100.00;99868.98;111289;1254;21985;-85
2023/12/29 09:50:39;;;;;;;40.00;13.60;;;;;;;10.19;100.00;99867.54;111227;1255;23700;-84
2023/12/29 09:53:52;;;;;;;34.90;12.80;;;;;;;10.36;100.00;99865.62;111365;1253;23603;-85
2023/12/29 09:56:55;;;;;;;17.40;12.10;;;;;;;10.41;100.00;99863.98;110806;1263;21974;-84
2023/12/29 09:59:38;;;;;;;21.10;14.60;;;;;;;10.49;100.00;99866.23;110269;1260;22452;-85
2023/12/29 10:02:39;;;;;;;19.90;10.30;;;;;;;10.53;100.00;99862.05;110148;1268;23195;-84
2023/12/29 10:05:57;;;;;;;12.40;7.40;;;;;;;10.55;100.00;99858.52;110166;1268;22000;-85
2023/12/29 10:08:56;;;;;;;21.20;8.90;;;;;;;10.55;100.00;99860.94;110392;1267;21989;-83
2023/12/29 10:11:49;;;;;;;20.00;13.50;;;;;;;10.55;100.00;99860.23;110242;1268;23672;-85
2023/12/29 10:15:26;;;;;;;;;;;;;;;;;;;;;
2023/12/29 10:19:00;;;;;;;57.30;38.40;;;;;;;10.66;100.00;99851.54;110588;1267;22061;-84
2023/12/29 10:22:23;;;;;;;26.40;12.40;;;;;;;10.59;100.00;99854.48;110249;1269;23089;-86
2023/12/29 10:25:25;;;;;;;57.40;31.20;;;;;;;10.57;100.00;99857.01;110533;1264;22981;-85
2023/12/29 10:28:34;;;;;;;44.00;23.00;;;;;;;10.56;100.00;99854.80;110346;1268;22008;-84
2023/12/29 10:31:34;;;;;;;13.80;8.60;;;;;;;10.57;100.00;99851.81;109511;1274;22050;-84
2023/12/29 10:34:32;;;;;;;16.80;10.40;;;;;;;10.72;100.00;99851.63;110103;1265;23900;-84
2023/12/29 10:37:23;;;;;;;13.30;9.60;;;;;;;10.82;100.00;99845.60;110227;1265;21979;-84
2023/12/29 10:40:07;;;;;;;11.80;8.70;;;;;;;10.95;100.00;99855.79;110387;1265;21973;-84
2023/12/29 10:43:07;;;;;;;8.50;6.80;;;;;;;11.12;100.00;99856.02;110533;1257;23067;-84
2023/12/29 10:46:18;;;;;;;10.80;8.10;;;;;;;11.26;100.00;99848.72;110847;1263;21975;-85
2023/12/29 10:49:24;;;;;;;25.20;10.00;;;;;;;11.33;100.00;99846.81;110188;1269;23035;-84
2023/12/29 10:52:36;;;;;;;;;;;;;;;;;;;;;
2023/12/29 10:55:44;;;;;;;12.00;6.60;;;;;;;11.37;100.00;99849.58;110034;1268;22173;-84
2023/12/29 10:58:42;;;;;;;14.70;6.80;;;;;;;11.37;100.00;99845.05;109920;1268;22010;-84
2023/12/29 11:01:54;;;;;;;12.20;7.80;;;;;;;11.37;100.00;99840.53;109846;1266;22967;-84
2023/12/29 11:04:50;;;;;;;21.60;8.70;;;;;;;11.35;100.00;99838.05;110561;1266;23126;-85
2023/12/29 11:08:11;;;;;;;;;;;;;;;;;;;;;
2023/12/29 11:11:32;;;;;;;8.30;6.30;;;;;;;11.31;100.00;99821.82;111044;1260;23033;-87
2023/12/29 11:14:51;;;;;;;8.70;5.30;;;;;;;11.32;100.00;99819.36;111061;1260;21977;-85
2023/12/29 11:18:31;;;;;;;8.60;5.00;;;;;;;11.23;100.00;99810.40;110894;1260;21965;-86
2023/12/29 11:22:06;;;;;;;9.50;5.80;;;;;;;11.13;100.00;99804.81;111060;1259;22075;-85
2023/12/29 11:25:09;;;;;;;18.60;12.10;;;;;;;11.08;100.00;99802.75;111120;1255;23615;-86
2023/12/29 11:28:16;;;;;;;15.30;7.40;;;;;;;11.11;100.00;99798.10;111344;1255;21973;-84
2023/12/29 11:31:22;;;;;;;11.40;7.00;;;;;;;11.13;100.00;99796.41;111107;1257;23632;-83
2023/12/29 11:34:51;;;;;;;10.10;6.50;;;;;;;11.18;100.00;99790.27;111192;1259;23021;-85
2023/12/29 11:38:12;;;;;;;9.90;7.50;;;;;;;11.21;100.00;99793.22;110937;1263;22142;-84
2023/12/29 11:41:45;;;;;;;14.70;8.00;;;;;;;11.25;100.00;99793.06;111088;1257;21973;-84
2023/12/29 11:45:56;;;;;;;14.40;9.90;;;;;;;11.25;100.00;99787.09;110074;1270;22639;-84
2023/12/29 11:49:01;;;;;;;16.10;9.10;;;;;;;11.28;100.00;99788.02;110433;1267;21981;-85
2023/12/29 11:55:42;;;;;;;10.50;8.00;;;;;;;11.26;100.00;99791.41;109331;1272;21968;-84
2023/12/29 11:58:47;;;;;;;10.30;7.10;;;;;;;11.26;100.00;99796.64;109597;1275;22013;-84
2023/12/29 12:02:36;;;;;;;10.70;8.40;;;;;;;11.25;100.00;99794.44;109005;1280;21970;-86
2023/12/29 12:06:08;;;;;;;;;;;;;;;;;;;;;
2023/12/29 12:09:34;;;;;;;13.80;11.10;;;;;;;11.36;100.00;99779.25;108258;1289;546066;-86
2023/12/29 12:13:10;;;;;;;;;;;;;;;;;;;;;
2023/12/29 12:17:38;;;;;;;11.70;8.60;;;;;;;11.22;100.00;99784.50;110717;1267;21978;-84
2023/12/29 12:21:12;;;;;;;10.10;7.00;;;;;;;11.20;100.00;99788.08;110424;1267;21943;-87
2023/12/29 12:24:44;;;;;;;10.50;7.20;;;;;;;11.22;100.00;99780.30;110730;1267;21973;-83
2023/12/29 12:27:36;;;;;;;7.10;4.90;;;;;;;11.29;100.00;99773.51;110150;1267;22510;-83
2023/12/29 12:31:16;;;;;;;8.20;5.80;;;;;;;11.35;100.00;99781.91;110606;1267;21984;-87
2023/12/29 12:34:55;;;;;;;10.30;6.70;;;;;;;11.38;100.00;99782.80;110663;1266;21994;-86
2023/12/29 12:38:30;;;;;;;;;;;;;;;;;;;;;
2023/12/29 12:41:43;;;;;;;10.50;7.00;;;;;;;11.45;100.00;99778.45;111342;1259;21994;-85
2023/12/29 12:46:00;;;;;;;10.90;7.20;;;;;;;11.51;100.00;99779.17;111521;1253;21977;-86
2023/12/29 12:49:11;;;;;;;10.40;5.20;;;;;;;11.56;100.00;99782.94;110438;1269;21984;-86
2023/12/29 12:53:14;;;;;;;;;;;;;;;;;;;;;
2023/12/29 12:56:53;;;;;;;8.40;6.60;;;;;;;11.51;100.00;99784.43;109722;1277;21957;-86
2023/12/29 13:03:59;;;;;;;;;;;;;;;11.38;100.00;99780.91;108954;1287;21985;-85
2023/12/29 13:11:46;;;;;;;10.40;6.60;;;;;;;11.33;100.00;99785.49;108479;1293;22347;-87
2023/12/29 13:15:47;;;;;;;;;;;;;;;;;;;;;
2023/12/29 13:19:19;;;;;;;;;;;;;;;11.37;100.00;99782.17;107577;1299;22251;-86
2023/12/29 13:21:56;;;;;;;8.50;6.60;;;;;;;11.38;100.00;99786.46;107469;1298;23765;-87
2023/12/29 13:24:47;;;;;;;8.30;6.90;;;;;;;11.38;100.00;99780.88;107909;1285;24768;-86
2023/12/29 13:27:35;;;;;;;9.90;7.70;;;;;;;11.35;100.00;99786.45;108908;1280;21966;-85
2023/12/29 13:30:15;;;;;;;9.30;7.30;;;;;;;11.32;100.00;99788.67;108947;1283;22015;-85
2023/12/29 13:32:50;;;;;;;18.20;10.50;;;;;;;11.29;100.00;99787.59;108866;1283;21996;-85
2023/12/29 13:35:45;;;;;;;9.80;6.00;;;;;;;11.25;100.00;99789.91;108782;1277;22001;-84
2023/12/29 13:38:48;;;;;;;14.00;7.80;;;;;;;11.19;100.00;99787.08;109193;1276;22001;-86
2023/12/29 13:41:44;;;;;;;10.50;8.30;;;;;;;11.14;100.00;99783.14;109085;1277;23136;-86